createdAt,value
2023-01-19T00:00:01.987Z,12.23
2023-01-19T00:02:28.492Z,14.33
2023-01-19T00:04:55.454Z,13.57
2023-01-19T00:07:21.791Z,14.23
2023-01-19T00:09:48.403Z,16.13
2023-01-19T00:12:15.150Z,18.97
2023-01-19T00:14:41.487Z,17.30
2023-01-19T00:17:08.167Z,18.70
2023-01-19T00:19:34.882Z,14.77
2023-01-19T00:22:01.409Z,13.37
2023-01-19T00:24:27.995Z,14.40
2023-01-19T00:26:54.321Z,17.30
2023-01-19T00:29:20.741Z,15.43
2023-01-19T00:31:47.841Z,14.60
2023-01-19T00:34:14.583Z,14.60
2023-01-19T00:36:41.095Z,16.10
2023-01-19T00:39:07.676Z,14.97
2023-01-19T00:41:34.477Z,13.67
2023-01-19T00:44:00.922Z,15.23
2023-01-19T00:46:27.287Z,15.83
2023-01-19T00:48:53.577Z,16.17
2023-01-19T00:51:20.298Z,15.63
2023-01-19T00:53:46.710Z,14.53
2023-01-19T00:56:13.176Z,15.37
2023-01-19T00:58:39.784Z,14.40
2023-01-19T01:01:06.468Z,15.50
2023-01-19T01:03:33.967Z,14.87
2023-01-19T01:06:00.849Z,13.43
2023-01-19T01:08:27.241Z,14.40
2023-01-19T01:10:54.951Z,14.83
2023-01-19T01:13:24.184Z,14.50
2023-01-19T01:15:54.610Z,13.77
2023-01-19T01:18:22.107Z,15.43
2023-01-19T01:20:48.526Z,14.47
2023-01-19T01:23:15.565Z,15.73
2023-01-19T01:25:42.239Z,14.77
2023-01-19T01:28:10.219Z,14.23
2023-01-19T01:30:38.630Z,14.83
2023-01-19T01:33:06.405Z,15.50
2023-01-19T01:35:32.944Z,16.17
2023-01-19T01:38:00.394Z,15.07
2023-01-19T01:40:27.365Z,13.97
2023-01-19T01:42:54.656Z,14.73
2023-01-19T01:45:50.466Z,15.10
2023-01-19T01:48:23.824Z,14.57
2023-01-19T01:50:54.838Z,16.10
2023-01-19T01:53:21.371Z,15.40
2023-01-19T01:55:49.413Z,15.80
2023-01-19T01:58:16.472Z,14.30
2023-01-19T02:00:43.254Z,15.90
2023-01-19T02:03:12.256Z,15.87
2023-01-19T02:05:39.902Z,15.07
2023-01-19T02:08:15.711Z,14.27
2023-01-19T02:10:43.235Z,14.93
2023-01-19T02:13:09.955Z,16.40
2023-01-19T02:15:36.327Z,17.67
2023-01-19T02:18:02.893Z,16.47
2023-01-19T02:20:31.547Z,15.70
2023-01-19T02:23:03.633Z,14.70
2023-01-19T02:25:30.553Z,16.13
2023-01-19T02:27:57.115Z,15.13
2023-01-19T02:30:23.627Z,14.70
2023-01-19T02:32:50.203Z,14.30
2023-01-19T02:35:16.646Z,15.00
2023-01-19T02:37:45.054Z,15.37
2023-01-19T02:40:13.975Z,16.63
2023-01-19T02:42:45.764Z,16.40
2023-01-19T02:45:19.853Z,16.30
2023-01-19T02:47:49.179Z,16.47
2023-01-19T02:50:33.354Z,21.10
2023-01-19T02:53:12.406Z,20.37
2023-01-19T02:55:40.482Z,16.80
2023-01-19T02:58:15.877Z,16.90
2023-01-19T03:01:10.359Z,14.63
2023-01-19T03:04:05.872Z,16.93
2023-01-19T03:06:47.651Z,16.43
2023-01-19T03:09:59.407Z,15.33
2023-01-19T03:12:40.591Z,15.63
2023-01-19T03:15:26.798Z,16.90
2023-01-19T03:18:02.171Z,15.73
2023-01-19T03:20:29.017Z,17.70
2023-01-19T03:23:01.190Z,16.20
2023-01-19T03:25:31.664Z,15.63
2023-01-19T03:27:59.180Z,11.85
2023-01-19T03:30:41.610Z,16.20
2023-01-19T03:33:11.998Z,16.23
2023-01-19T03:35:43.812Z,15.93
2023-01-19T03:38:18.190Z,15.03
2023-01-19T03:40:46.123Z,15.60
2023-01-19T03:43:16.301Z,16.50
2023-01-19T03:45:43.305Z,16.60
2023-01-19T03:48:09.757Z,14.23
2023-01-19T03:50:36.150Z,15.27
2023-01-19T03:53:07.326Z,15.10
2023-01-19T03:55:37.344Z,14.97
2023-01-19T03:58:04.757Z,14.68
2023-01-19T04:00:31.595Z,14.60
2023-01-19T04:02:58.467Z,14.33
2023-01-19T04:05:25.519Z,15.20
2023-01-19T04:07:52.695Z,14.20
2023-01-19T04:10:19.940Z,14.63
2023-01-19T04:12:46.442Z,15.57
2023-01-19T04:15:13.209Z,13.70
2023-01-19T04:17:39.972Z,12.93
2023-01-19T04:20:07.425Z,13.80
2023-01-19T04:22:34.264Z,14.67
2023-01-19T04:25:00.761Z,14.20
2023-01-19T04:27:27.457Z,14.07
2023-01-19T04:29:54.405Z,14.03
2023-01-19T04:32:21.316Z,14.07
2023-01-19T04:34:48.702Z,15.53
2023-01-19T04:37:15.203Z,14.10
2023-01-19T04:39:41.570Z,12.87
2023-01-19T04:42:08.058Z,13.70
2023-01-19T04:44:34.570Z,13.97
2023-01-19T04:47:00.979Z,13.53
2023-01-19T04:49:27.564Z,13.67
2023-01-19T04:51:54.736Z,14.43
2023-01-19T04:54:21.698Z,14.03
2023-01-19T04:56:48.446Z,14.30
2023-01-19T04:59:15.331Z,13.93
2023-01-19T05:01:43.270Z,14.20
2023-01-19T05:04:09.963Z,14.17
2023-01-19T05:06:38.589Z,13.23
2023-01-19T05:09:05.371Z,15.20
2023-01-19T05:11:33.196Z,13.07
2023-01-19T05:13:59.778Z,13.90
2023-01-19T05:16:26.871Z,14.53
2023-01-19T05:18:53.233Z,14.87
2023-01-19T05:21:19.695Z,13.90
2023-01-19T05:23:46.124Z,15.23
2023-01-19T05:26:12.813Z,15.20
2023-01-19T05:28:39.194Z,17.17
2023-01-19T05:31:06.073Z,16.67
2023-01-19T05:33:32.473Z,17.60
2023-01-19T05:35:58.885Z,17.87
2023-01-19T05:38:34.624Z,16.37
2023-01-19T05:41:01.622Z,16.03
2023-01-19T05:43:28.308Z,15.13
2023-01-19T05:45:54.869Z,15.47
2023-01-19T05:48:21.496Z,14.90
2023-01-19T05:50:48.034Z,15.30
2023-01-19T05:53:14.576Z,16.33
2023-01-19T05:55:41.742Z,16.83
2023-01-19T05:58:08.262Z,16.43
2023-01-19T06:00:34.912Z,17.37
2023-01-19T06:03:03.284Z,15.73
2023-01-19T06:05:30.139Z,15.67
2023-01-19T06:07:57.557Z,16.13
2023-01-19T06:10:24.033Z,15.37
2023-01-19T06:12:50.569Z,16.33
2023-01-19T06:15:17.264Z,15.23
2023-01-19T06:17:43.704Z,14.50
2023-01-19T06:20:11.135Z,15.13
2023-01-19T06:22:37.407Z,13.03
2023-01-19T06:25:03.914Z,15.17
2023-01-19T06:27:30.275Z,15.23
2023-01-19T06:29:56.619Z,14.87
2023-01-19T06:32:24.333Z,14.33
2023-01-19T06:34:53.191Z,15.73
2023-01-19T06:37:20.207Z,15.13
2023-01-19T06:39:46.664Z,14.03
2023-01-19T06:42:13.113Z,15.13
2023-01-19T06:44:39.462Z,14.97
2023-01-19T06:47:15.002Z,13.87
2023-01-19T06:49:42.243Z,15.17
2023-01-19T06:52:11.474Z,13.77
2023-01-19T06:54:37.969Z,14.10
2023-01-19T06:57:06.082Z,13.17
2023-01-19T06:59:32.890Z,14.57
2023-01-19T07:01:59.823Z,14.07
2023-01-19T07:04:30.075Z,17.57
2023-01-19T07:06:57.430Z,17.92
2023-01-19T07:09:24.054Z,18.43
2023-01-19T07:11:53.576Z,19.40
2023-01-19T07:14:20.100Z,18.77
2023-01-19T07:16:46.599Z,18.83
2023-01-19T07:19:12.974Z,17.23
2023-01-19T07:21:40.241Z,16.87
2023-01-19T07:24:07.625Z,16.17
2023-01-19T07:26:34.277Z,15.10
2023-01-19T07:29:00.912Z,15.80
2023-01-19T07:31:27.376Z,14.50
2023-01-19T07:33:54.098Z,14.43
2023-01-19T07:36:21.532Z,14.13
2023-01-19T07:38:48.228Z,13.70
2023-01-19T07:41:14.882Z,12.93
2023-01-19T07:43:41.673Z,14.00
2023-01-19T07:46:08.193Z,13.23
2023-01-19T07:48:34.687Z,13.17
2023-01-19T07:51:05.403Z,12.80
2023-01-19T07:55:59.153Z,10.83
2023-01-19T07:58:25.910Z,12.10
2023-01-19T08:00:53.806Z,12.80
2023-01-19T08:03:20.647Z,12.33
2023-01-19T08:05:51.665Z,12.27
2023-01-19T08:08:18.400Z,12.30
2023-01-19T08:10:44.914Z,11.57
2023-01-19T08:13:11.339Z,11.37
2023-01-19T08:15:37.731Z,11.60
2023-01-19T08:18:04.848Z,11.33
2023-01-19T08:20:32.118Z,12.70
2023-01-19T08:22:58.826Z,10.93
2023-01-19T08:25:34.007Z,11.20
2023-01-19T08:28:01.177Z,11.33
2023-01-19T08:30:27.788Z,9.93
2023-01-19T08:32:54.852Z,12.07
2023-01-19T08:35:21.575Z,10.27
2023-01-19T08:37:48.310Z,10.60
2023-01-19T08:40:14.739Z,8.93
2023-01-19T08:42:41.611Z,11.63
2023-01-19T08:45:08.542Z,12.60
2023-01-19T08:47:35.262Z,10.27
2023-01-19T08:50:02.763Z,11.30
2023-01-19T08:52:29.062Z,9.80
2023-01-19T08:54:55.573Z,9.10
2023-01-19T08:57:22.743Z,9.17
2023-01-19T08:59:50.468Z,8.50
2023-01-19T09:02:19.722Z,9.07
2023-01-19T09:04:46.697Z,8.83
2023-01-19T09:07:13.366Z,8.40
2023-01-19T09:09:39.870Z,9.13
2023-01-19T09:12:06.339Z,8.80
2023-01-19T09:14:33.008Z,9.30
2023-01-19T09:16:59.392Z,9.87
2023-01-19T09:19:25.782Z,8.63
2023-01-19T09:21:53.911Z,9.47
2023-01-19T09:24:20.561Z,9.20
2023-01-19T09:26:47.879Z,9.57
2023-01-19T09:29:14.575Z,9.40
2023-01-19T09:31:41.358Z,8.93
2023-01-19T09:34:07.907Z,9.67
2023-01-19T09:36:34.578Z,9.90
2023-01-19T09:39:01.331Z,9.80
2023-01-19T09:41:28.503Z,9.03
2023-01-19T09:43:59.639Z,10.53
2023-01-19T09:46:32.855Z,9.67
2023-01-19T09:49:03.348Z,9.60
2023-01-19T09:51:36.289Z,9.15
2023-01-19T09:54:18.448Z,8.93
2023-01-19T09:56:52.146Z,8.50
2023-01-19T09:59:28.820Z,9.17
2023-01-19T10:02:43.151Z,8.40
2023-01-19T10:05:25.706Z,9.37
2023-01-19T10:08:27.681Z,9.97
2023-01-19T10:10:57.067Z,7.90
2023-01-19T10:13:39.840Z,8.53
2023-01-19T10:16:25.748Z,9.03
2023-01-19T10:18:57.469Z,9.20
2023-01-19T10:21:44.417Z,8.30
2023-01-19T10:24:24.515Z,7.10
2023-01-19T10:26:53.858Z,7.30
2023-01-19T10:29:36.563Z,7.37
2023-01-19T10:32:14.736Z,6.50
2023-01-19T10:34:41.213Z,6.63
2023-01-19T10:37:43.474Z,7.93
2023-01-19T10:40:10.928Z,6.80
2023-01-19T10:42:40.766Z,6.87
2023-01-19T10:45:18.243Z,7.23
2023-01-19T10:47:47.265Z,7.13
2023-01-19T10:50:29.722Z,6.63
2023-01-19T10:53:01.872Z,7.00
2023-01-19T10:55:38.704Z,6.83
2023-01-19T10:58:28.384Z,7.00
2023-01-19T11:00:55.013Z,7.80
2023-01-19T11:03:32.678Z,6.40
2023-01-19T11:06:28.939Z,6.90
2023-01-19T11:09:30.830Z,7.20
2023-01-19T11:11:57.510Z,8.50
2023-01-19T11:14:26.093Z,7.10
2023-01-19T11:16:59.162Z,8.77
2023-01-19T11:19:29.052Z,8.17
2023-01-19T11:22:17.671Z,6.80
2023-01-19T11:24:44.584Z,7.47
2023-01-19T11:27:10.951Z,8.20
2023-01-19T11:29:37.416Z,7.23
2023-01-19T11:32:12.707Z,7.00
2023-01-19T11:34:39.142Z,7.40
2023-01-19T11:37:19.073Z,6.60
2023-01-19T11:39:51.250Z,6.67
2023-01-19T11:42:19.250Z,6.63
2023-01-19T11:44:57.815Z,6.00
2023-01-19T11:47:46.194Z,5.43
2023-01-19T11:50:23.401Z,6.33
2023-01-19T11:52:59.647Z,6.33
2023-01-19T11:55:38.343Z,6.10
2023-01-19T11:58:05.864Z,5.90
2023-01-19T12:00:44.730Z,6.03
2023-01-19T12:03:24.940Z,6.13
2023-01-19T12:05:55.324Z,5.40
2023-01-19T12:08:54.736Z,5.55
2023-01-19T12:11:32.417Z,4.87
2023-01-19T12:14:00.552Z,5.90
2023-01-19T12:16:29.896Z,6.20
2023-01-19T12:19:01.283Z,6.30
2023-01-19T12:21:27.902Z,6.37
2023-01-19T12:24:36.476Z,5.87
2023-01-19T12:27:12.676Z,5.47
2023-01-19T12:29:40.203Z,4.97
2023-01-19T12:32:16.040Z,5.57
2023-01-19T12:34:44.289Z,5.67
2023-01-19T12:37:42.332Z,5.30
2023-01-19T12:40:24.468Z,5.23
2023-01-19T12:42:58.021Z,5.73
2023-01-19T12:45:29.138Z,5.70
2023-01-19T12:47:56.917Z,5.90
2023-01-19T12:50:25.333Z,5.23
2023-01-19T12:52:59.400Z,5.07
2023-01-19T12:55:35.437Z,6.20
2023-01-19T12:58:12.965Z,5.73
2023-01-19T13:00:44.166Z,5.63
2023-01-19T13:03:16.456Z,5.87
2023-01-19T13:05:42.771Z,7.17
2023-01-19T13:08:09.099Z,6.43
2023-01-19T13:11:00.022Z,6.60
2023-01-19T13:13:31.238Z,6.28
2023-01-19T13:16:20.746Z,5.77
2023-01-19T13:18:55.128Z,6.80
2023-01-19T13:21:39.893Z,7.33
2023-01-19T13:24:10.398Z,5.40
2023-01-19T13:26:54.808Z,6.05
2023-01-19T13:29:29.309Z,6.80
2023-01-19T13:31:56.741Z,6.30
2023-01-19T13:34:25.877Z,5.50
2023-01-19T13:36:54.887Z,7.00
2023-01-19T13:39:34.986Z,6.80
2023-01-19T13:42:13.069Z,6.93
2023-01-19T13:44:48.177Z,6.20
2023-01-19T13:47:23.052Z,6.50
2023-01-19T13:49:55.764Z,6.73
2023-01-19T13:52:29.660Z,5.97
2023-01-19T13:55:03.536Z,6.13
2023-01-19T13:57:40.264Z,6.40
2023-01-19T14:00:19.398Z,5.20
2023-01-19T14:03:16.307Z,7.43
2023-01-19T14:05:44.125Z,6.50
2023-01-19T14:08:11.411Z,8.93
2023-01-19T14:10:39.180Z,8.67
2023-01-19T14:13:16.720Z,9.27
2023-01-19T14:15:44.871Z,8.67
2023-01-19T14:18:32.507Z,8.33
2023-01-19T14:21:15.736Z,7.03
2023-01-19T14:23:49.121Z,6.83
2023-01-19T14:26:37.655Z,7.73
2023-01-19T14:29:14.404Z,7.97
2023-01-19T14:31:47.633Z,8.10
2023-01-19T14:34:29.206Z,7.30
2023-01-19T14:36:55.885Z,8.27
2023-01-19T14:39:25.880Z,7.33
2023-01-19T14:41:54.440Z,8.65
2023-01-19T14:44:37.842Z,8.67
2023-01-19T14:47:06.113Z,8.90
2023-01-19T14:49:42.642Z,9.63
2023-01-19T14:52:40.815Z,9.27
2023-01-19T14:55:20.299Z,9.67
2023-01-19T14:57:47.683Z,10.10
2023-01-19T15:00:17.576Z,9.47
2023-01-19T15:02:45.975Z,10.45
2023-01-19T15:05:13.211Z,8.33
2023-01-19T15:07:42.587Z,8.50
2023-01-19T15:10:21.426Z,7.77
2023-01-19T15:12:49.717Z,8.13
2023-01-19T15:15:20.157Z,8.50
2023-01-19T15:17:47.271Z,7.82
2023-01-19T15:20:17.835Z,8.10
2023-01-19T15:22:44.931Z,9.63
2023-01-19T15:25:16.403Z,9.93
2023-01-19T15:27:44.810Z,8.13
2023-01-19T15:30:23.608Z,7.57
2023-01-19T15:32:51.406Z,8.67
2023-01-19T15:35:21.980Z,8.50
2023-01-19T15:37:52.497Z,8.88
2023-01-19T15:40:19.960Z,8.77
2023-01-19T15:42:46.864Z,8.57
2023-01-19T15:45:30.535Z,9.20
2023-01-19T15:47:57.111Z,8.77
2023-01-19T15:50:25.433Z,8.40
2023-01-19T15:52:52.261Z,8.83
2023-01-19T15:55:19.722Z,7.87
2023-01-19T15:57:47.679Z,7.27
2023-01-19T16:00:14.685Z,9.13
2023-01-19T16:02:41.531Z,9.37
2023-01-19T16:05:08.971Z,9.20
2023-01-19T16:07:35.737Z,10.30
2023-01-19T16:10:02.539Z,9.83
2023-01-19T16:12:29.214Z,9.60
2023-01-19T16:14:55.635Z,9.17
2023-01-19T16:17:22.101Z,10.07
2023-01-19T16:19:48.503Z,9.90
2023-01-19T16:22:15.072Z,9.03
2023-01-19T16:24:44.148Z,9.67
2023-01-19T16:27:10.797Z,8.63
2023-01-19T16:29:37.226Z,9.47
2023-01-19T16:32:03.697Z,9.17
2023-01-19T16:34:31.515Z,10.30
2023-01-19T16:36:58.962Z,10.67
2023-01-19T16:39:25.383Z,10.00
2023-01-19T16:41:51.728Z,9.53
2023-01-19T16:44:18.307Z,9.23
2023-01-19T16:46:47.033Z,10.33
2023-01-19T16:49:14.965Z,10.93
2023-01-19T16:51:41.635Z,10.53
2023-01-19T16:54:11.975Z,9.27
2023-01-19T16:56:38.401Z,9.75
2023-01-19T16:59:04.851Z,10.50
2023-01-19T17:01:31.568Z,10.07
2023-01-19T17:03:58.176Z,9.20
2023-01-19T17:06:25.366Z,10.40
2023-01-19T17:08:52.897Z,10.07
2023-01-19T17:11:22.201Z,11.47
2023-01-19T17:13:50.082Z,11.63
2023-01-19T17:16:16.508Z,12.23
2023-01-19T17:18:42.983Z,12.60
2023-01-19T17:21:10.867Z,10.87
2023-01-19T17:23:41.476Z,12.63
2023-01-19T17:26:08.190Z,11.63
2023-01-19T17:28:35.374Z,11.23
2023-01-19T17:31:11.384Z,11.30
2023-01-19T17:33:38.837Z,10.53
2023-01-19T17:36:11.638Z,14.33
2023-01-19T17:38:39.227Z,10.57
2023-01-19T17:41:16.631Z,10.33
2023-01-19T17:43:43.207Z,9.90
2023-01-19T17:46:10.772Z,9.53
2023-01-19T17:48:38.416Z,10.40
2023-01-19T17:51:07.046Z,10.30
2023-01-19T17:53:35.622Z,9.23
2023-01-19T17:56:10.475Z,11.50
2023-01-19T17:58:37.386Z,12.00
2023-01-19T18:01:11.346Z,12.50
2023-01-19T18:03:38.200Z,16.80
2023-01-19T18:06:05.213Z,17.43
2023-01-19T18:08:32.061Z,17.50
2023-01-19T18:11:00.549Z,16.27
2023-01-19T18:13:28.923Z,15.47
2023-01-19T18:16:04.302Z,15.07
2023-01-19T18:18:31.155Z,14.47
2023-01-19T18:20:59.359Z,15.03
2023-01-19T18:23:25.893Z,16.00
2023-01-19T18:26:04.043Z,14.47
2023-01-19T18:28:31.798Z,13.50
2023-01-19T18:30:59.961Z,14.13
2023-01-19T18:33:26.624Z,14.57
2023-01-19T18:35:53.399Z,14.33
2023-01-19T18:38:19.905Z,14.73
2023-01-19T18:40:46.547Z,13.07
2023-01-19T18:43:13.993Z,12.40
2023-01-19T18:45:40.988Z,14.23
2023-01-19T18:48:07.982Z,11.97
2023-01-19T18:50:34.467Z,11.53
2023-01-19T18:53:01.198Z,11.07
2023-01-19T18:55:27.629Z,11.00
2023-01-19T18:57:54.161Z,11.97
2023-01-19T19:00:23.256Z,12.60
2023-01-19T19:02:52.510Z,12.13
2023-01-19T19:05:19.260Z,12.37
2023-01-19T19:07:47.943Z,13.50
2023-01-19T19:10:15.001Z,12.20
2023-01-19T19:12:41.869Z,14.60
2023-01-19T19:15:09.696Z,12.03
2023-01-19T19:17:36.402Z,11.80
2023-01-19T19:20:04.039Z,10.27
2023-01-19T19:22:32.397Z,9.97
2023-01-19T19:24:58.942Z,10.83
2023-01-19T19:27:25.557Z,11.90
2023-01-19T19:29:51.936Z,12.60
2023-01-19T19:32:18.341Z,12.17
2023-01-19T19:34:44.663Z,12.43
2023-01-19T19:37:11.011Z,12.93
2023-01-19T19:39:37.419Z,11.50
2023-01-19T19:42:03.855Z,11.57
2023-01-19T19:44:30.642Z,11.97
2023-01-19T19:46:57.002Z,12.93
2023-01-19T19:49:23.419Z,12.67
2023-01-19T19:51:49.819Z,11.87
2023-01-19T19:54:16.150Z,12.20
2023-01-19T19:56:42.654Z,12.50
2023-01-19T19:59:09.051Z,13.63
2023-01-19T20:01:35.844Z,16.43
2023-01-19T20:04:12.130Z,16.77
2023-01-19T20:06:40.643Z,17.47
2023-01-19T20:09:09.852Z,16.30
2023-01-19T20:11:37.605Z,16.43
2023-01-19T20:14:08.912Z,18.30
2023-01-19T20:16:36.228Z,17.83
2023-01-19T20:19:03.166Z,17.10
2023-01-19T20:21:32.752Z,17.83
2023-01-19T20:24:01.823Z,19.23
2023-01-19T20:26:31.542Z,19.83
2023-01-19T20:28:59.623Z,19.13
2023-01-19T20:31:29.378Z,17.97
2023-01-19T20:33:58.039Z,19.60
2023-01-19T20:36:25.358Z,19.10
2023-01-19T20:38:54.082Z,17.87
2023-01-19T20:41:22.456Z,17.67
2023-01-19T20:43:48.968Z,16.77
2023-01-19T20:46:15.512Z,15.47
2023-01-19T20:48:42.269Z,17.67
2023-01-19T20:51:12.741Z,16.97
2023-01-19T20:53:41.450Z,16.48
2023-01-19T20:56:11.868Z,14.57
2023-01-19T20:58:38.996Z,16.70
2023-01-19T21:01:17.459Z,16.07
2023-01-19T21:03:44.670Z,16.40
2023-01-19T21:06:12.229Z,16.23
2023-01-19T21:08:39.240Z,15.30
2023-01-19T21:11:07.465Z,16.93
2023-01-19T21:13:34.192Z,16.83
2023-01-19T21:16:01.442Z,14.37
2023-01-19T21:18:28.019Z,13.30
2023-01-19T21:20:55.486Z,14.40
2023-01-19T21:23:21.799Z,13.93
2023-01-19T21:25:53.126Z,13.67
2023-01-19T21:28:20.333Z,14.60
2023-01-19T21:30:46.909Z,14.27
2023-01-19T21:33:13.686Z,14.37
2023-01-19T21:35:40.372Z,12.50
2023-01-19T21:38:06.717Z,13.00
2023-01-19T21:40:35.167Z,13.87
2023-01-19T21:43:01.646Z,13.70
2023-01-19T21:45:28.131Z,14.47
2023-01-19T21:47:55.876Z,13.80
2023-01-19T21:50:22.212Z,14.10
2023-01-19T21:52:48.547Z,14.67
2023-01-19T21:55:15.469Z,14.47
2023-01-19T21:57:43.343Z,14.40
2023-01-19T22:00:11.080Z,15.10
2023-01-19T22:02:39.068Z,14.63
2023-01-19T22:05:06.336Z,13.87
2023-01-19T22:07:32.922Z,14.00
2023-01-19T22:09:59.326Z,14.47
2023-01-19T22:12:25.715Z,13.50
2023-01-19T22:14:52.408Z,14.10
2023-01-19T22:17:18.797Z,15.50
2023-01-19T22:19:45.442Z,13.70
2023-01-19T22:22:12.119Z,14.27
2023-01-19T22:24:38.692Z,14.13
2023-01-19T22:27:05.228Z,13.70
2023-01-19T22:29:31.596Z,13.03
2023-01-19T22:31:57.950Z,13.57
2023-01-19T22:34:24.328Z,13.00
2023-01-19T22:36:51.066Z,13.13
2023-01-19T22:39:18.003Z,12.17
2023-01-19T22:41:46.302Z,14.50
2023-01-19T22:44:20.461Z,12.93
2023-01-19T22:46:48.612Z,12.57
2023-01-19T22:49:17.338Z,11.00
2023-01-19T22:51:44.750Z,12.57
2023-01-19T22:54:11.963Z,13.10
2023-01-19T22:56:43.689Z,12.70
2023-01-19T22:59:10.147Z,12.50
2023-01-19T23:01:39.186Z,11.80
2023-01-19T23:04:07.178Z,12.37
2023-01-19T23:06:35.936Z,13.27
2023-01-19T23:09:06.746Z,12.47
2023-01-19T23:11:39.655Z,11.98
2023-01-19T23:14:07.640Z,13.00
2023-01-19T23:16:34.889Z,11.23
2023-01-19T23:19:02.745Z,11.57
2023-01-19T23:21:31.712Z,12.03
2023-01-19T23:24:03.542Z,11.17
2023-01-19T23:26:32.093Z,11.73
2023-01-19T23:29:01.480Z,11.63
2023-01-19T23:31:31.083Z,12.53
2023-01-19T23:33:59.908Z,12.67
2023-01-19T23:36:29.449Z,12.20
2023-01-19T23:38:58.808Z,11.57
2023-01-19T23:41:26.259Z,13.90
2023-01-19T23:43:52.818Z,15.43
2023-01-19T23:46:20.218Z,16.20
2023-01-19T23:48:47.486Z,14.03
2023-01-19T23:51:20.179Z,13.27
2023-01-19T23:53:47.235Z,13.17
2023-01-19T23:56:27.305Z,14.37
2023-01-19T23:58:57.346Z,13.38
